sensor_id;sensor_type;location;lat;lon;timestamp;P1;durP1;ratioP1;P2;durP2;ratioP2
24681;SDS011;12802;53.390;-2.328;2023-03-04T00:01:14;9.82;;;2.60;;
24681;SDS011;12802;53.390;-2.328;2023-03-04T00:03:40;12.52;;;3.15;;
24681;SDS011;12802;53.390;-2.328;2023-03-04T00:06:06;10.77;;;2.15;;
24681;SDS011;12802;53.390;-2.328;2023-03-04T00:08:33;7.72;;;2.72;;
24681;SDS011;12802;53.390;-2.328;2023-03-04T00:10:59;3.88;;;2.25;;
24681;SDS011;12802;53.390;-2.328;2023-03-04T00:13:25;3.88;;;1.98;;
24681;SDS011;12802;53.390;-2.328;2023-03-04T00:15:50;4.70;;;2.25;;
24681;SDS011;12802;53.390;-2.328;2023-03-04T00:18:17;4.03;;;1.73;;
24681;SDS011;12802;53.390;-2.328;2023-03-04T00:20:45;8.75;;;2.40;;
24681;SDS011;12802;53.390;-2.328;2023-03-04T00:23:11;13.48;;;2.35;;
24681;SDS011;12802;53.390;-2.328;2023-03-04T00:25:36;9.48;;;2.63;;
24681;SDS011;12802;53.390;-2.328;2023-03-04T00:28:02;7.80;;;2.80;;
24681;SDS011;12802;53.390;-2.328;2023-03-04T00:30:28;9.10;;;2.17;;
24681;SDS011;12802;53.390;-2.328;2023-03-04T00:32:54;5.07;;;2.38;;
24681;SDS011;12802;53.390;-2.328;2023-03-04T00:35:21;4.90;;;1.58;;
24681;SDS011;12802;53.390;-2.328;2023-03-04T00:37:47;6.75;;;1.63;;
24681;SDS011;12802;53.390;-2.328;2023-03-04T00:40:14;3.20;;;1.30;;
24681;SDS011;12802;53.390;-2.328;2023-03-04T00:42:40;5.20;;;2.15;;
24681;SDS011;12802;53.390;-2.328;2023-03-04T00:45:07;4.85;;;2.05;;
24681;SDS011;12802;53.390;-2.328;2023-03-04T00:47:33;9.75;;;2.60;;
24681;SDS011;12802;53.390;-2.328;2023-03-04T00:49:59;5.55;;;2.42;;
24681;SDS011;12802;53.390;-2.328;2023-03-04T00:52:25;7.53;;;2.22;;
24681;SDS011;12802;53.390;-2.328;2023-03-04T00:54:51;8.82;;;2.10;;
24681;SDS011;12802;53.390;-2.328;2023-03-04T00:57:16;11.32;;;2.40;;
24681;SDS011;12802;53.390;-2.328;2023-03-04T00:59:42;5.03;;;2.08;;
24681;SDS011;12802;53.390;-2.328;2023-03-04T01:02:08;5.20;;;2.03;;
24681;SDS011;12802;53.390;-2.328;2023-03-04T01:04:35;11.30;;;3.25;;
24681;SDS011;12802;53.390;-2.328;2023-03-04T01:07:01;7.72;;;2.40;;
24681;SDS011;12802;53.390;-2.328;2023-03-04T01:09:27;8.05;;;2.45;;
24681;SDS011;12802;53.390;-2.328;2023-03-04T01:11:53;5.60;;;2.72;;
24681;SDS011;12802;53.390;-2.328;2023-03-04T01:14:19;6.95;;;2.80;;
24681;SDS011;12802;53.390;-2.328;2023-03-04T01:16:44;7.32;;;3.03;;
24681;SDS011;12802;53.390;-2.328;2023-03-04T01:19:10;8.30;;;2.75;;
24681;SDS011;12802;53.390;-2.328;2023-03-04T01:21:36;7.65;;;2.95;;
24681;SDS011;12802;53.390;-2.328;2023-03-04T01:24:02;5.55;;;2.80;;
24681;SDS011;12802;53.390;-2.328;2023-03-04T01:26:28;9.60;;;2.65;;
24681;SDS011;12802;53.390;-2.328;2023-03-04T01:28:53;6.38;;;2.72;;
24681;SDS011;12802;53.390;-2.328;2023-03-04T01:31:19;4.15;;;2.35;;
24681;SDS011;12802;53.390;-2.328;2023-03-04T01:33:45;13.77;;;3.38;;
24681;SDS011;12802;53.390;-2.328;2023-03-04T01:36:11;10.05;;;3.55;;
24681;SDS011;12802;53.390;-2.328;2023-03-04T01:38:36;7.93;;;3.45;;
24681;SDS011;12802;53.390;-2.328;2023-03-04T01:41:02;10.25;;;3.40;;
24681;SDS011;12802;53.390;-2.328;2023-03-04T01:43:29;13.07;;;4.05;;
24681;SDS011;12802;53.390;-2.328;2023-03-04T01:45:55;6.55;;;2.15;;
24681;SDS011;12802;53.390;-2.328;2023-03-04T01:48:24;9.40;;;3.30;;
24681;SDS011;12802;53.390;-2.328;2023-03-04T01:50:52;7.13;;;3.10;;
24681;SDS011;12802;53.390;-2.328;2023-03-04T01:53:22;7.70;;;3.50;;
24681;SDS011;12802;53.390;-2.328;2023-03-04T01:55:51;22.65;;;3.72;;
24681;SDS011;12802;53.390;-2.328;2023-03-04T01:58:19;5.88;;;3.22;;
24681;SDS011;12802;53.390;-2.328;2023-03-04T02:00:45;14.52;;;3.85;;
24681;SDS011;12802;53.390;-2.328;2023-03-04T02:03:11;8.07;;;4.00;;
24681;SDS011;12802;53.390;-2.328;2023-03-04T02:05:41;7.80;;;3.47;;
24681;SDS011;12802;53.390;-2.328;2023-03-04T02:08:10;6.10;;;2.67;;
24681;SDS011;12802;53.390;-2.328;2023-03-04T02:10:37;8.93;;;4.22;;
24681;SDS011;12802;53.390;-2.328;2023-03-04T02:13:04;10.32;;;3.75;;
24681;SDS011;12802;53.390;-2.328;2023-03-04T02:15:30;8.70;;;3.70;;
24681;SDS011;12802;53.390;-2.328;2023-03-04T02:17:57;10.60;;;4.15;;
24681;SDS011;12802;53.390;-2.328;2023-03-04T02:25:48;6.80;;;3.33;;
24681;SDS011;12802;53.390;-2.328;2023-03-04T02:28:19;6.22;;;3.97;;
24681;SDS011;12802;53.390;-2.328;2023-03-04T02:30:46;7.70;;;3.58;;
24681;SDS011;12802;53.390;-2.328;2023-03-04T02:33:13;7.63;;;3.25;;
24681;SDS011;12802;53.390;-2.328;2023-03-04T02:38:08;10.52;;;3.33;;
24681;SDS011;12802;53.390;-2.328;2023-03-04T02:40:35;8.57;;;3.00;;
24681;SDS011;12802;53.390;-2.328;2023-03-04T02:43:02;12.10;;;3.33;;
24681;SDS011;12802;53.390;-2.328;2023-03-04T02:48:06;5.45;;;2.63;;
24681;SDS011;12802;53.390;-2.328;2023-03-04T02:50:35;12.32;;;2.47;;
24681;SDS011;12802;53.390;-2.328;2023-03-04T02:53:06;4.65;;;2.00;;
24681;SDS011;12802;53.390;-2.328;2023-03-04T02:55:32;6.72;;;1.95;;
24681;SDS011;12802;53.390;-2.328;2023-03-04T02:57:59;10.65;;;1.73;;
24681;SDS011;12802;53.390;-2.328;2023-03-04T03:00:25;5.93;;;2.70;;
24681;SDS011;12802;53.390;-2.328;2023-03-04T03:02:52;4.30;;;1.98;;
24681;SDS011;12802;53.390;-2.328;2023-03-04T03:05:18;6.18;;;2.38;;
24681;SDS011;12802;53.390;-2.328;2023-03-04T03:07:44;2.92;;;1.80;;
24681;SDS011;12802;53.390;-2.328;2023-03-04T03:10:11;6.15;;;2.08;;
24681;SDS011;12802;53.390;-2.328;2023-03-04T03:12:37;6.68;;;2.28;;
24681;SDS011;12802;53.390;-2.328;2023-03-04T03:15:03;4.80;;;2.78;;
24681;SDS011;12802;53.390;-2.328;2023-03-04T03:17:29;7.63;;;2.35;;
24681;SDS011;12802;53.390;-2.328;2023-03-04T03:19:55;7.97;;;2.25;;
24681;SDS011;12802;53.390;-2.328;2023-03-04T03:22:21;8.73;;;2.47;;
24681;SDS011;12802;53.390;-2.328;2023-03-04T03:24:46;5.47;;;2.50;;
24681;SDS011;12802;53.390;-2.328;2023-03-04T03:27:12;15.25;;;2.58;;
24681;SDS011;12802;53.390;-2.328;2023-03-04T03:29:38;8.63;;;2.67;;
24681;SDS011;12802;53.390;-2.328;2023-03-04T03:32:06;13.18;;;2.30;;
24681;SDS011;12802;53.390;-2.328;2023-03-04T03:34:32;5.07;;;2.15;;
24681;SDS011;12802;53.390;-2.328;2023-03-04T03:36:58;7.65;;;2.60;;
24681;SDS011;12802;53.390;-2.328;2023-03-04T03:39:24;6.82;;;3.38;;
24681;SDS011;12802;53.390;-2.328;2023-03-04T03:41:49;7.32;;;3.47;;
24681;SDS011;12802;53.390;-2.328;2023-03-04T03:44:15;10.90;;;3.05;;
24681;SDS011;12802;53.390;-2.328;2023-03-04T03:46:41;8.88;;;3.13;;
24681;SDS011;12802;53.390;-2.328;2023-03-04T03:49:07;8.23;;;3.28;;
24681;SDS011;12802;53.390;-2.328;2023-03-04T03:51:32;5.93;;;3.20;;
24681;SDS011;12802;53.390;-2.328;2023-03-04T03:53:58;6.57;;;2.78;;
24681;SDS011;12802;53.390;-2.328;2023-03-04T03:56:24;7.90;;;2.92;;
24681;SDS011;12802;53.390;-2.328;2023-03-04T03:58:49;5.10;;;2.63;;
24681;SDS011;12802;53.390;-2.328;2023-03-04T04:01:15;5.68;;;3.30;;
24681;SDS011;12802;53.390;-2.328;2023-03-04T04:03:41;5.82;;;2.97;;
24681;SDS011;12802;53.390;-2.328;2023-03-04T04:06:07;6.93;;;3.17;;
24681;SDS011;12802;53.390;-2.328;2023-03-04T04:08:32;7.22;;;3.03;;
24681;SDS011;12802;53.390;-2.328;2023-03-04T04:10:58;7.78;;;3.45;;
24681;SDS011;12802;53.390;-2.328;2023-03-04T04:13:24;8.68;;;3.38;;
24681;SDS011;12802;53.390;-2.328;2023-03-04T04:15:50;4.93;;;2.85;;
24681;SDS011;12802;53.390;-2.328;2023-03-04T04:18:16;6.35;;;3.03;;
24681;SDS011;12802;53.390;-2.328;2023-03-04T04:20:42;5.82;;;2.60;;
24681;SDS011;12802;53.390;-2.328;2023-03-04T04:23:08;8.73;;;3.35;;
24681;SDS011;12802;53.390;-2.328;2023-03-04T04:25:34;7.43;;;2.45;;
24681;SDS011;12802;53.390;-2.328;2023-03-04T04:27:59;5.03;;;2.75;;
24681;SDS011;12802;53.390;-2.328;2023-03-04T04:30:25;12.68;;;3.78;;
24681;SDS011;12802;53.390;-2.328;2023-03-04T04:32:51;15.20;;;2.90;;
24681;SDS011;12802;53.390;-2.328;2023-03-04T04:35:17;6.32;;;3.35;;
24681;SDS011;12802;53.390;-2.328;2023-03-04T04:37:43;6.68;;;3.15;;
24681;SDS011;12802;53.390;-2.328;2023-03-04T04:40:08;7.32;;;2.83;;
24681;SDS011;12802;53.390;-2.328;2023-03-04T04:42:34;4.70;;;2.67;;
24681;SDS011;12802;53.390;-2.328;2023-03-04T04:45:00;6.07;;;2.75;;
24681;SDS011;12802;53.390;-2.328;2023-03-04T04:47:26;7.40;;;2.85;;
24681;SDS011;12802;53.390;-2.328;2023-03-04T04:49:52;6.75;;;2.70;;
24681;SDS011;12802;53.390;-2.328;2023-03-04T04:52:17;8.07;;;2.63;;
24681;SDS011;12802;53.390;-2.328;2023-03-04T04:54:43;6.35;;;3.10;;
24681;SDS011;12802;53.390;-2.328;2023-03-04T04:57:09;8.38;;;2.85;;
24681;SDS011;12802;53.390;-2.328;2023-03-04T04:59:35;5.32;;;2.60;;
24681;SDS011;12802;53.390;-2.328;2023-03-04T05:02:00;9.63;;;2.95;;
24681;SDS011;12802;53.390;-2.328;2023-03-04T05:04:26;8.98;;;3.67;;
24681;SDS011;12802;53.390;-2.328;2023-03-04T05:06:52;5.22;;;2.45;;
24681;SDS011;12802;53.390;-2.328;2023-03-04T05:09:18;7.03;;;2.75;;
24681;SDS011;12802;53.390;-2.328;2023-03-04T05:11:45;5.45;;;2.88;;
24681;SDS011;12802;53.390;-2.328;2023-03-04T05:14:10;6.38;;;2.85;;
24681;SDS011;12802;53.390;-2.328;2023-03-04T05:16:36;7.28;;;2.95;;
24681;SDS011;12802;53.390;-2.328;2023-03-04T05:19:02;5.03;;;2.17;;
24681;SDS011;12802;53.390;-2.328;2023-03-04T05:21:28;9.45;;;3.25;;
24681;SDS011;12802;53.390;-2.328;2023-03-04T05:23:53;12.43;;;3.17;;
24681;SDS011;12802;53.390;-2.328;2023-03-04T05:26:19;5.45;;;2.75;;
24681;SDS011;12802;53.390;-2.328;2023-03-04T05:28:45;7.78;;;3.10;;
24681;SDS011;12802;53.390;-2.328;2023-03-04T05:31:11;7.50;;;3.13;;
24681;SDS011;12802;53.390;-2.328;2023-03-04T05:33:37;6.90;;;3.00;;
24681;SDS011;12802;53.390;-2.328;2023-03-04T05:36:03;6.15;;;3.58;;
24681;SDS011;12802;53.390;-2.328;2023-03-04T05:38:30;8.98;;;3.92;;
24681;SDS011;12802;53.390;-2.328;2023-03-04T05:40:57;7.07;;;3.90;;
24681;SDS011;12802;53.390;-2.328;2023-03-04T05:43:25;7.90;;;4.03;;
24681;SDS011;12802;53.390;-2.328;2023-03-04T05:45:52;9.18;;;3.33;;
24681;SDS011;12802;53.390;-2.328;2023-03-04T05:48:18;6.55;;;3.63;;
24681;SDS011;12802;53.390;-2.328;2023-03-04T05:50:44;16.98;;;4.30;;
24681;SDS011;12802;53.390;-2.328;2023-03-04T05:53:10;11.45;;;5.03;;
24681;SDS011;12802;53.390;-2.328;2023-03-04T05:55:36;11.60;;;4.03;;
24681;SDS011;12802;53.390;-2.328;2023-03-04T05:58:01;7.90;;;4.03;;
24681;SDS011;12802;53.390;-2.328;2023-03-04T06:00:27;10.43;;;4.10;;
24681;SDS011;12802;53.390;-2.328;2023-03-04T06:02:53;6.80;;;3.38;;
24681;SDS011;12802;53.390;-2.328;2023-03-04T06:05:19;8.40;;;3.35;;
24681;SDS011;12802;53.390;-2.328;2023-03-04T06:07:45;13.07;;;4.47;;
24681;SDS011;12802;53.390;-2.328;2023-03-04T06:10:12;7.03;;;3.97;;
24681;SDS011;12802;53.390;-2.328;2023-03-04T06:12:40;11.02;;;3.35;;
24681;SDS011;12802;53.390;-2.328;2023-03-04T06:15:06;8.27;;;2.72;;
24681;SDS011;12802;53.390;-2.328;2023-03-04T06:17:34;9.65;;;3.70;;
24681;SDS011;12802;53.390;-2.328;2023-03-04T06:20:00;11.15;;;2.75;;
24681;SDS011;12802;53.390;-2.328;2023-03-04T06:22:26;5.05;;;2.60;;
24681;SDS011;12802;53.390;-2.328;2023-03-04T06:24:52;6.88;;;2.22;;
24681;SDS011;12802;53.390;-2.328;2023-03-04T06:27:18;6.13;;;2.92;;
24681;SDS011;12802;53.390;-2.328;2023-03-04T06:29:43;10.30;;;2.47;;
24681;SDS011;12802;53.390;-2.328;2023-03-04T06:32:09;4.97;;;2.70;;
24681;SDS011;12802;53.390;-2.328;2023-03-04T06:34:35;9.43;;;2.58;;
24681;SDS011;12802;53.390;-2.328;2023-03-04T06:37:01;5.57;;;2.08;;
24681;SDS011;12802;53.390;-2.328;2023-03-04T06:39:27;4.50;;;2.25;;
24681;SDS011;12802;53.390;-2.328;2023-03-04T06:41:52;9.55;;;2.33;;
24681;SDS011;12802;53.390;-2.328;2023-03-04T06:44:18;6.32;;;2.58;;
24681;SDS011;12802;53.390;-2.328;2023-03-04T06:46:44;5.20;;;2.28;;
24681;SDS011;12802;53.390;-2.328;2023-03-04T06:49:10;3.75;;;2.25;;
24681;SDS011;12802;53.390;-2.328;2023-03-04T06:51:35;4.97;;;2.40;;
24681;SDS011;12802;53.390;-2.328;2023-03-04T06:54:01;3.17;;;2.05;;
24681;SDS011;12802;53.390;-2.328;2023-03-04T06:56:27;5.40;;;2.30;;
24681;SDS011;12802;53.390;-2.328;2023-03-04T06:58:53;7.55;;;1.75;;
24681;SDS011;12802;53.390;-2.328;2023-03-04T07:01:23;7.90;;;1.83;;
24681;SDS011;12802;53.390;-2.328;2023-03-04T07:03:51;4.90;;;2.35;;
24681;SDS011;12802;53.390;-2.328;2023-03-04T07:06:19;5.00;;;2.08;;
24681;SDS011;12802;53.390;-2.328;2023-03-04T07:08:46;7.18;;;2.25;;
24681;SDS011;12802;53.390;-2.328;2023-03-04T07:11:12;5.60;;;2.47;;
24681;SDS011;12802;53.390;-2.328;2023-03-04T07:13:39;7.40;;;2.28;;
24681;SDS011;12802;53.390;-2.328;2023-03-04T07:16:09;7.88;;;2.42;;
24681;SDS011;12802;53.390;-2.328;2023-03-04T07:18:37;9.77;;;2.38;;
24681;SDS011;12802;53.390;-2.328;2023-03-04T07:21:03;3.70;;;2.38;;
24681;SDS011;12802;53.390;-2.328;2023-03-04T07:23:29;9.05;;;2.75;;
24681;SDS011;12802;53.390;-2.328;2023-03-04T07:25:55;6.28;;;2.75;;
24681;SDS011;12802;53.390;-2.328;2023-03-04T07:28:21;5.03;;;2.22;;
24681;SDS011;12802;53.390;-2.328;2023-03-04T07:30:46;8.63;;;2.72;;
24681;SDS011;12802;53.390;-2.328;2023-03-04T07:33:13;4.03;;;2.53;;
24681;SDS011;12802;53.390;-2.328;2023-03-04T07:35:39;6.80;;;2.80;;
24681;SDS011;12802;53.390;-2.328;2023-03-04T07:38:06;6.05;;;2.85;;
24681;SDS011;12802;53.390;-2.328;2023-03-04T07:40:32;12.75;;;2.83;;
24681;SDS011;12802;53.390;-2.328;2023-03-04T07:42:58;13.80;;;2.53;;
24681;SDS011;12802;53.390;-2.328;2023-03-04T07:45:25;9.23;;;2.67;;
24681;SDS011;12802;53.390;-2.328;2023-03-04T07:47:51;5.72;;;1.98;;
24681;SDS011;12802;53.390;-2.328;2023-03-04T07:50:18;6.50;;;3.00;;
24681;SDS011;12802;53.390;-2.328;2023-03-04T07:52:45;9.77;;;2.22;;
24681;SDS011;12802;53.390;-2.328;2023-03-04T07:55:12;4.45;;;2.55;;
24681;SDS011;12802;53.390;-2.328;2023-03-04T07:57:40;7.05;;;2.30;;
24681;SDS011;12802;53.390;-2.328;2023-03-04T08:00:07;6.75;;;2.35;;
24681;SDS011;12802;53.390;-2.328;2023-03-04T08:02:37;4.10;;;2.70;;
24681;SDS011;12802;53.390;-2.328;2023-03-04T08:05:03;4.30;;;2.70;;
24681;SDS011;12802;53.390;-2.328;2023-03-04T08:07:29;7.75;;;2.55;;
24681;SDS011;12802;53.390;-2.328;2023-03-04T08:09:55;8.30;;;2.47;;
24681;SDS011;12802;53.390;-2.328;2023-03-04T08:12:21;4.35;;;2.55;;
24681;SDS011;12802;53.390;-2.328;2023-03-04T08:14:49;13.57;;;2.47;;
24681;SDS011;12802;53.390;-2.328;2023-03-04T08:17:18;9.82;;;2.75;;
24681;SDS011;12802;53.390;-2.328;2023-03-04T08:19:44;16.77;;;2.95;;
24681;SDS011;12802;53.390;-2.328;2023-03-04T08:22:11;7.15;;;2.33;;
24681;SDS011;12802;53.390;-2.328;2023-03-04T08:24:37;3.17;;;1.67;;
24681;SDS011;12802;53.390;-2.328;2023-03-04T08:27:03;6.82;;;2.17;;
24681;SDS011;12802;53.390;-2.328;2023-03-04T08:29:28;3.22;;;2.13;;
24681;SDS011;12802;53.390;-2.328;2023-03-04T08:31:54;4.30;;;2.47;;
24681;SDS011;12802;53.390;-2.328;2023-03-04T08:34:21;9.30;;;2.70;;
24681;SDS011;12802;53.390;-2.328;2023-03-04T08:36:49;6.07;;;2.90;;
24681;SDS011;12802;53.390;-2.328;2023-03-04T08:39:15;6.00;;;2.67;;
24681;SDS011;12802;53.390;-2.328;2023-03-04T08:41:42;6.65;;;2.10;;
24681;SDS011;12802;53.390;-2.328;2023-03-04T08:44:08;4.53;;;2.15;;
24681;SDS011;12802;53.390;-2.328;2023-03-04T08:46:37;8.57;;;3.22;;
24681;SDS011;12802;53.390;-2.328;2023-03-04T08:49:04;6.50;;;2.97;;
24681;SDS011;12802;53.390;-2.328;2023-03-04T08:51:30;6.03;;;2.83;;
24681;SDS011;12802;53.390;-2.328;2023-03-04T08:53:56;11.30;;;3.45;;
24681;SDS011;12802;53.390;-2.328;2023-03-04T08:56:22;10.40;;;3.20;;
24681;SDS011;12802;53.390;-2.328;2023-03-04T08:58:48;6.70;;;2.88;;
24681;SDS011;12802;53.390;-2.328;2023-03-04T09:01:14;5.38;;;3.00;;
24681;SDS011;12802;53.390;-2.328;2023-03-04T09:03:40;3.80;;;2.75;;
24681;SDS011;12802;53.390;-2.328;2023-03-04T09:06:07;7.90;;;3.05;;
24681;SDS011;12802;53.390;-2.328;2023-03-04T09:08:36;6.72;;;2.53;;
24681;SDS011;12802;53.390;-2.328;2023-03-04T09:11:01;5.05;;;2.50;;
24681;SDS011;12802;53.390;-2.328;2023-03-04T09:13:29;5.05;;;2.95;;
24681;SDS011;12802;53.390;-2.328;2023-03-04T09:15:55;9.48;;;2.55;;
24681;SDS011;12802;53.390;-2.328;2023-03-04T09:18:22;10.13;;;2.60;;
24681;SDS011;12802;53.390;-2.328;2023-03-04T09:20:50;8.70;;;2.65;;
24681;SDS011;12802;53.390;-2.328;2023-03-04T09:23:17;6.38;;;2.40;;
24681;SDS011;12802;53.390;-2.328;2023-03-04T09:25:43;5.07;;;2.33;;
24681;SDS011;12802;53.390;-2.328;2023-03-04T09:28:11;10.52;;;2.15;;
24681;SDS011;12802;53.390;-2.328;2023-03-04T09:30:38;5.32;;;2.25;;
24681;SDS011;12802;53.390;-2.328;2023-03-04T09:33:04;4.03;;;2.17;;
24681;SDS011;12802;53.390;-2.328;2023-03-04T09:35:30;6.25;;;2.53;;
24681;SDS011;12802;53.390;-2.328;2023-03-04T09:37:56;7.38;;;2.72;;
24681;SDS011;12802;53.390;-2.328;2023-03-04T09:40:24;4.93;;;2.10;;
24681;SDS011;12802;53.390;-2.328;2023-03-04T09:42:57;3.90;;;2.22;;
24681;SDS011;12802;53.390;-2.328;2023-03-04T09:45:34;6.20;;;2.00;;
24681;SDS011;12802;53.390;-2.328;2023-03-04T09:48:04;9.20;;;2.53;;
24681;SDS011;12802;53.390;-2.328;2023-03-04T09:50:32;8.57;;;3.20;;
24681;SDS011;12802;53.390;-2.328;2023-03-04T09:53:05;7.65;;;2.80;;
24681;SDS011;12802;53.390;-2.328;2023-03-04T09:55:46;6.80;;;2.97;;
24681;SDS011;12802;53.390;-2.328;2023-03-04T09:58:30;6.32;;;2.40;;
24681;SDS011;12802;53.390;-2.328;2023-03-04T10:01:25;6.50;;;2.83;;
24681;SDS011;12802;53.390;-2.328;2023-03-04T10:03:54;11.68;;;2.90;;
24681;SDS011;12802;53.390;-2.328;2023-03-04T10:06:25;3.80;;;2.00;;
24681;SDS011;12802;53.390;-2.328;2023-03-04T10:09:03;6.40;;;2.30;;
24681;SDS011;12802;53.390;-2.328;2023-03-04T10:11:49;3.90;;;2.25;;
24681;SDS011;12802;53.390;-2.328;2023-03-04T10:14:37;11.07;;;2.83;;
24681;SDS011;12802;53.390;-2.328;2023-03-04T10:17:13;6.38;;;2.28;;
24681;SDS011;12802;53.390;-2.328;2023-03-04T10:19:56;3.10;;;1.98;;
24681;SDS011;12802;53.390;-2.328;2023-03-04T10:22:29;6.00;;;1.75;;
24681;SDS011;12802;53.390;-2.328;2023-03-04T10:25:18;8.68;;;2.35;;
24681;SDS011;12802;53.390;-2.328;2023-03-04T10:33:36;4.38;;;2.10;;
24681;SDS011;12802;53.390;-2.328;2023-03-04T10:39:01;3.97;;;1.35;;
24681;SDS011;12802;53.390;-2.328;2023-03-04T10:41:42;4.32;;;2.30;;
24681;SDS011;12802;53.390;-2.328;2023-03-04T10:46:42;7.70;;;2.33;;
24681;SDS011;12802;53.390;-2.328;2023-03-04T10:49:10;8.13;;;1.98;;
24681;SDS011;12802;53.390;-2.328;2023-03-04T10:51:42;8.75;;;2.47;;
24681;SDS011;12802;53.390;-2.328;2023-03-04T10:54:21;7.82;;;2.58;;
24681;SDS011;12802;53.390;-2.328;2023-03-04T10:56:55;8.45;;;2.60;;
24681;SDS011;12802;53.390;-2.328;2023-03-04T11:04:42;3.40;;;2.00;;
24681;SDS011;12802;53.390;-2.328;2023-03-04T11:07:15;9.00;;;2.72;;
24681;SDS011;12802;53.390;-2.328;2023-03-04T11:09:40;4.85;;;2.33;;
24681;SDS011;12802;53.390;-2.328;2023-03-04T11:12:10;4.32;;;2.33;;
24681;SDS011;12802;53.390;-2.328;2023-03-04T11:14:43;3.00;;;2.23;;
24681;SDS011;12802;53.390;-2.328;2023-03-04T11:17:23;8.48;;;2.70;;
24681;SDS011;12802;53.390;-2.328;2023-03-04T11:19:53;8.15;;;2.40;;
24681;SDS011;12802;53.390;-2.328;2023-03-04T11:22:20;6.72;;;2.25;;
24681;SDS011;12802;53.390;-2.328;2023-03-04T11:24:53;10.18;;;2.70;;
24681;SDS011;12802;53.390;-2.328;2023-03-04T11:27:26;6.45;;;2.75;;
24681;SDS011;12802;53.390;-2.328;2023-03-04T11:33:00;8.30;;;3.17;;
24681;SDS011;12802;53.390;-2.328;2023-03-04T11:35:49;6.63;;;3.05;;
24681;SDS011;12802;53.390;-2.328;2023-03-04T11:38:23;6.43;;;2.50;;
24681;SDS011;12802;53.390;-2.328;2023-03-04T11:41:16;7.47;;;2.90;;
24681;SDS011;12802;53.390;-2.328;2023-03-04T11:43:49;11.23;;;3.17;;
24681;SDS011;12802;53.390;-2.328;2023-03-04T11:49:20;9.73;;;3.22;;
24681;SDS011;12802;53.390;-2.328;2023-03-04T11:52:20;5.88;;;2.95;;
24681;SDS011;12802;53.390;-2.328;2023-03-04T12:09:28;6.63;;;3.33;;
24681;SDS011;12802;53.390;-2.328;2023-03-04T12:20:22;8.07;;;3.22;;
24681;SDS011;12802;53.390;-2.328;2023-03-04T12:31:45;7.05;;;3.80;;
24681;SDS011;12802;53.390;-2.328;2023-03-04T12:39:44;6.07;;;3.00;;
24681;SDS011;12802;53.390;-2.328;2023-03-04T12:47:43;9.80;;;3.78;;
24681;SDS011;12802;53.390;-2.328;2023-03-04T12:53:49;10.25;;;3.20;;
24681;SDS011;12802;53.390;-2.328;2023-03-04T12:56:00;5.68;;;3.28;;
24681;SDS011;12802;53.390;-2.328;2023-03-04T12:58:29;9.55;;;3.60;;
24681;SDS011;12802;53.390;-2.328;2023-03-04T13:01:05;5.63;;;2.88;;
24681;SDS011;12802;53.390;-2.328;2023-03-04T13:03:50;9.07;;;3.85;;
24681;SDS011;12802;53.390;-2.328;2023-03-04T13:09:27;9.48;;;3.60;;
24681;SDS011;12802;53.390;-2.328;2023-03-04T13:12:02;6.35;;;3.38;;
24681;SDS011;12802;53.390;-2.328;2023-03-04T13:25:42;8.95;;;3.53;;
24681;SDS011;12802;53.390;-2.328;2023-03-04T13:43:43;12.57;;;2.83;;
24681;SDS011;12802;53.390;-2.328;2023-03-04T13:51:22;9.65;;;3.47;;
24681;SDS011;12802;53.390;-2.328;2023-03-04T13:56:35;6.43;;;3.13;;
24681;SDS011;12802;53.390;-2.328;2023-03-04T14:02:13;6.18;;;3.35;;
24681;SDS011;12802;53.390;-2.328;2023-03-04T14:07:23;9.60;;;3.20;;
24681;SDS011;12802;53.390;-2.328;2023-03-04T14:12:22;16.20;;;4.22;;
24681;SDS011;12802;53.390;-2.328;2023-03-04T14:14:51;10.32;;;3.88;;
24681;SDS011;12802;53.390;-2.328;2023-03-04T14:17:23;7.38;;;2.90;;
24681;SDS011;12802;53.390;-2.328;2023-03-04T14:19:55;5.57;;;2.63;;
24681;SDS011;12802;53.390;-2.328;2023-03-04T14:22:25;10.68;;;3.75;;
24681;SDS011;12802;53.390;-2.328;2023-03-04T14:24:58;8.18;;;3.08;;
24681;SDS011;12802;53.390;-2.328;2023-03-04T14:27:24;6.38;;;2.70;;
24681;SDS011;12802;53.390;-2.328;2023-03-04T14:29:54;7.22;;;2.97;;
24681;SDS011;12802;53.390;-2.328;2023-03-04T14:32:22;8.18;;;3.03;;
24681;SDS011;12802;53.390;-2.328;2023-03-04T14:34:48;6.18;;;3.50;;
24681;SDS011;12802;53.390;-2.328;2023-03-04T14:40:19;8.95;;;3.17;;
24681;SDS011;12802;53.390;-2.328;2023-03-04T14:42:48;10.23;;;3.35;;
24681;SDS011;12802;53.390;-2.328;2023-03-04T14:45:23;11.52;;;3.90;;
24681;SDS011;12802;53.390;-2.328;2023-03-04T14:47:50;12.60;;;3.47;;
24681;SDS011;12802;53.390;-2.328;2023-03-04T14:50:19;7.93;;;3.28;;
24681;SDS011;12802;53.390;-2.328;2023-03-04T14:52:49;9.80;;;4.00;;
24681;SDS011;12802;53.390;-2.328;2023-03-04T14:55:28;9.02;;;3.28;;
24681;SDS011;12802;53.390;-2.328;2023-03-04T14:58:04;6.40;;;3.28;;
24681;SDS011;12802;53.390;-2.328;2023-03-04T15:00:43;8.85;;;3.05;;
24681;SDS011;12802;53.390;-2.328;2023-03-04T15:03:20;10.43;;;3.50;;
24681;SDS011;12802;53.390;-2.328;2023-03-04T15:05:48;8.40;;;3.88;;
24681;SDS011;12802;53.390;-2.328;2023-03-04T15:08:35;6.80;;;3.10;;
24681;SDS011;12802;53.390;-2.328;2023-03-04T15:11:05;6.82;;;2.90;;
24681;SDS011;12802;53.390;-2.328;2023-03-04T15:13:38;6.80;;;3.15;;
24681;SDS011;12802;53.390;-2.328;2023-03-04T15:16:14;7.45;;;2.83;;
24681;SDS011;12802;53.390;-2.328;2023-03-04T15:18:55;8.70;;;3.50;;
24681;SDS011;12802;53.390;-2.328;2023-03-04T15:21:47;16.65;;;3.72;;
24681;SDS011;12802;53.390;-2.328;2023-03-04T15:24:13;6.18;;;3.08;;
24681;SDS011;12802;53.390;-2.328;2023-03-04T15:26:40;6.47;;;3.35;;
24681;SDS011;12802;53.390;-2.328;2023-03-04T15:29:12;7.78;;;3.00;;
24681;SDS011;12802;53.390;-2.328;2023-03-04T15:31:42;6.70;;;3.25;;
24681;SDS011;12802;53.390;-2.328;2023-03-04T15:34:12;9.52;;;3.53;;
24681;SDS011;12802;53.390;-2.328;2023-03-04T15:36:39;7.97;;;3.50;;
24681;SDS011;12802;53.390;-2.328;2023-03-04T15:39:08;8.57;;;3.75;;
24681;SDS011;12802;53.390;-2.328;2023-03-04T15:41:37;8.93;;;3.75;;
24681;SDS011;12802;53.390;-2.328;2023-03-04T15:44:02;9.27;;;3.90;;
24681;SDS011;12802;53.390;-2.328;2023-03-04T15:46:28;7.25;;;3.60;;
24681;SDS011;12802;53.390;-2.328;2023-03-04T15:48:54;11.18;;;3.50;;
24681;SDS011;12802;53.390;-2.328;2023-03-04T15:51:20;10.00;;;3.83;;
24681;SDS011;12802;53.390;-2.328;2023-03-04T15:53:51;14.32;;;3.72;;
24681;SDS011;12802;53.390;-2.328;2023-03-04T15:56:22;6.50;;;3.63;;
24681;SDS011;12802;53.390;-2.328;2023-03-04T15:58:56;12.18;;;3.85;;
24681;SDS011;12802;53.390;-2.328;2023-03-04T16:01:25;7.57;;;3.45;;
24681;SDS011;12802;53.390;-2.328;2023-03-04T16:03:51;9.27;;;4.03;;
24681;SDS011;12802;53.390;-2.328;2023-03-04T16:06:18;8.10;;;3.83;;
24681;SDS011;12802;53.390;-2.328;2023-03-04T16:08:47;9.13;;;3.88;;
24681;SDS011;12802;53.390;-2.328;2023-03-04T16:11:18;12.95;;;4.22;;
24681;SDS011;12802;53.390;-2.328;2023-03-04T16:13:47;7.70;;;3.90;;
24681;SDS011;12802;53.390;-2.328;2023-03-04T16:16:13;7.68;;;3.90;;
24681;SDS011;12802;53.390;-2.328;2023-03-04T16:18:40;4.35;;;3.05;;
24681;SDS011;12802;53.390;-2.328;2023-03-04T16:21:06;6.57;;;3.78;;
24681;SDS011;12802;53.390;-2.328;2023-03-04T16:23:38;8.07;;;4.38;;
24681;SDS011;12802;53.390;-2.328;2023-03-04T16:26:11;12.88;;;4.70;;
24681;SDS011;12802;53.390;-2.328;2023-03-04T16:28:45;10.07;;;3.80;;
24681;SDS011;12802;53.390;-2.328;2023-03-04T16:31:13;8.88;;;4.10;;
24681;SDS011;12802;53.390;-2.328;2023-03-04T16:33:39;7.38;;;3.38;;
24681;SDS011;12802;53.390;-2.328;2023-03-04T16:36:12;10.30;;;4.10;;
24681;SDS011;12802;53.390;-2.328;2023-03-04T16:38:44;12.23;;;3.35;;
24681;SDS011;12802;53.390;-2.328;2023-03-04T16:41:10;11.73;;;3.63;;
24681;SDS011;12802;53.390;-2.328;2023-03-04T16:43:38;9.02;;;3.88;;
24681;SDS011;12802;53.390;-2.328;2023-03-04T16:46:05;5.28;;;2.90;;
24681;SDS011;12802;53.390;-2.328;2023-03-04T16:48:31;4.40;;;2.83;;